Time;durP1;ratioP1;P1;durP2;ratioP2;P2;SDS_P1;SDS_P2;PMS_P1;PMS_P2;Temp;Humidity;BMP_temperature;BMP_pressure;BME280_temperature;BME280_humidity;BME280_pressure;Samples;Min_cycle;Max_cycle;Signal;HPM_P1;HPM_P2
2024/01/07 00:00:40;;;;;;;;;;;18.00;65.90;;;;;;7318551;19;9501;-55
2024/01/07 00:03:12;;;;;;;;;;;18.00;65.80;;;;;;7316677;19;9819;-55
2024/01/07 00:05:41;;;;;;;;;;;18.00;65.80;;;;;;7318571;19;9407;-55
2024/01/07 00:08:10;;;;;;;;;;;18.00;65.80;;;;;;7315953;19;9191;-55
2024/01/07 00:10:39;;;;;;;;;;;17.90;65.70;;;;;;7318147;19;9663;-55
2024/01/07 00:13:08;;;;;;;;;;;17.90;65.70;;;;;;7316943;19;9204;-55
2024/01/07 00:15:37;;;;;;;;;;;17.90;65.70;;;;;;7317274;19;9539;-55
2024/01/07 00:18:06;;;;;;;;;;;17.90;65.60;;;;;;7318922;19;9610;-55
2024/01/07 00:20:38;;;;;;;;;;;17.90;65.60;;;;;;7323849;19;9568;-55
2024/01/07 00:23:07;;;;;;;;;;;17.80;65.60;;;;;;7323113;19;9465;-55
2024/01/07 00:25:36;;;;;;;;;;;17.80;65.50;;;;;;7323226;19;9279;-55
2024/01/07 00:28:05;;;;;;;;;;;17.80;65.40;;;;;;7322801;19;9213;-58
2024/01/07 00:30:34;;;;;;;;;;;17.70;65.40;;;;;;7323396;19;9457;-55
2024/01/07 00:33:03;;;;;;;;;;;17.70;65.60;;;;;;7324070;19;9528;-55
2024/01/07 00:35:32;;;;;;;;;;;17.60;65.50;;;;;;7322519;19;9238;-55
2024/01/07 00:38:03;;;;;;;;;;;17.60;65.70;;;;;;7323663;19;10674;-55
2024/01/07 00:40:32;;;;;;;;;;;17.50;65.70;;;;;;7322536;19;9528;-55
2024/01/07 00:43:21;;;;;;;;;;;17.40;65.80;;;;;;7320581;19;10135;-55
2024/01/07 00:45:50;;;;;;;;;;;17.40;65.90;;;;;;7323898;19;9302;-55
2024/01/07 00:48:19;;;;;;;;;;;17.40;65.90;;;;;;7321485;19;10637;-55
2024/01/07 00:50:48;;;;;;;;;;;17.30;66.00;;;;;;7322738;19;9377;-55
2024/01/07 00:53:20;;;;;;;;;;;17.30;66.20;;;;;;7321822;19;9534;-55
2024/01/07 00:55:49;;;;;;;;;;;17.20;66.20;;;;;;7323720;19;9449;-55
2024/01/07 00:58:19;;;;;;;;;;;17.20;66.20;;;;;;7321344;19;9621;-55
2024/01/07 01:00:48;;;;;;;;;;;17.10;66.20;;;;;;7321738;19;9490;-54
2024/01/07 01:03:17;;;;;;;;;;;17.10;66.30;;;;;;7322296;19;9469;-55
2024/01/07 01:05:46;;;;;;;;;;;17.10;66.30;;;;;;7322551;19;9402;-55
2024/01/07 01:08:15;;;;;;;;;;;17.10;66.30;;;;;;7320883;19;9517;-56
2024/01/07 01:10:47;;;;;;;;;;;17.10;66.20;;;;;;7322669;19;9461;-54
2024/01/07 01:13:16;;;;;;;;;;;17.10;66.20;;;;;;7321400;19;11155;-55
2024/01/07 01:15:45;;;;;;;;;;;17.10;66.10;;;;;;7322734;19;9417;-55
2024/01/07 01:18:14;;;;;;;;;;;17.10;66.10;;;;;;7321675;19;9331;-55
2024/01/07 01:20:43;;;;;;;;;;;17.10;66.10;;;;;;7322898;19;9404;-55
2024/01/07 01:23:12;;;;;;;;;;;17.20;66.20;;;;;;7321296;19;10796;-55
2024/01/07 01:25:41;;;;;;;;;;;17.20;66.10;;;;;;7322187;19;9548;-55
2024/01/07 01:28:13;;;;;;;;;;;17.20;66.10;;;;;;7320446;19;9226;-55
2024/01/07 01:30:42;;;;;;;;;;;17.20;66.20;;;;;;7321652;19;10487;-55
2024/01/07 01:33:11;;;;;;;;;;;17.30;66.30;;;;;;7321729;19;9077;-55
2024/01/07 01:35:40;;;;;;;;;;;17.30;66.20;;;;;;7321228;19;9464;-55
2024/01/07 01:38:09;;;;;;;;;;;17.40;66.10;;;;;;7322059;19;9550;-55
2024/01/07 01:40:38;;;;;;;;;;;17.50;66.10;;;;;;7318973;19;9275;-55
2024/01/07 01:43:07;;;;;;;;;;;17.50;66.00;;;;;;7321682;19;9237;-55
2024/01/07 01:45:39;;;;;;;;;;;17.60;65.90;;;;;;7322094;19;9287;-55
2024/01/07 01:48:09;;;;;;;;;;;17.60;65.90;;;;;;7321813;19;9234;-55
2024/01/07 01:50:38;;;;;;;;;;;17.70;65.80;;;;;;7321253;19;9426;-55
2024/01/07 01:53:07;;;;;;;;;;;17.70;65.70;;;;;;7321206;19;9473;-55
2024/01/07 01:55:37;;;;;;;;;;;17.80;65.70;;;;;;7322428;19;9378;-55
2024/01/07 01:58:08;;;;;;;;;;;17.80;65.70;;;;;;7320369;19;9227;-55
2024/01/07 02:00:39;;;;;;;;;;;17.90;65.60;;;;;;7321857;19;9282;-55
2024/01/07 02:03:08;;;;;;;;;;;17.90;65.60;;;;;;7320586;19;9260;-55
2024/01/07 02:05:38;;;;;;;;;;;17.90;65.50;;;;;;7321930;19;9229;-55
2024/01/07 02:08:08;;;;;;;;;;;17.90;65.50;;;;;;7319634;19;9229;-55
2024/01/07 02:10:37;;;;;;;;;;;18.00;65.50;;;;;;7321426;19;9535;-55
2024/01/07 02:13:07;;;;;;;;;;;17.90;65.40;;;;;;7320243;19;9391;-55
2024/01/07 02:15:38;;;;;;;;;;;18.00;65.40;;;;;;7320878;19;9422;-55
2024/01/07 02:18:08;;;;;;;;;;;17.90;65.30;;;;;;7319515;19;9309;-55
2024/01/07 02:20:37;;;;;;;;;;;17.90;65.30;;;;;;7320794;19;9426;-55
2024/01/07 02:23:26;;;;;;;;;;;17.90;65.30;;;;;;7318075;19;9221;-55
2024/01/07 02:25:57;;;;;;;;;;;17.90;65.20;;;;;;7320207;19;9348;-55
2024/01/07 02:28:26;;;;;;;;;;;17.80;65.20;;;;;;7320268;19;9264;-55
2024/01/07 02:30:55;;;;;;;;;;;17.80;65.10;;;;;;7319963;19;10255;-55
2024/01/07 02:33:24;;;;;;;;;;;17.70;65.10;;;;;;7319929;19;9738;-55
2024/01/07 02:35:53;;;;;;;;;;;17.70;65.10;;;;;;7319937;19;9451;-55
2024/01/07 02:38:22;;;;;;;;;;;17.70;65.10;;;;;;7319902;19;9721;-55
2024/01/07 02:40:51;;;;;;;;;;;17.60;65.20;;;;;;7316938;19;9460;-55
2024/01/07 02:43:23;;;;;;;;;;;17.60;65.20;;;;;;7319081;19;9381;-55
2024/01/07 02:45:51;;;;;;;;;;;17.50;65.30;;;;;;7321497;19;9492;-55
2024/01/07 02:48:20;;;;;;;;;;;17.50;65.30;;;;;;7318094;19;9841;-55
2024/01/07 02:50:50;;;;;;;;;;;17.40;65.40;;;;;;7320882;19;9477;-55
2024/01/07 02:53:19;;;;;;;;;;;17.30;65.50;;;;;;7317257;19;9465;-56
2024/01/07 02:55:48;;;;;;;;;;;17.30;65.60;;;;;;7319724;19;9470;-55
2024/01/07 02:58:18;;;;;;;;;;;17.30;65.60;;;;;;7319188;19;9425;-55
2024/01/07 03:00:49;;;;;;;;;;;17.20;65.70;;;;;;7319444;19;10776;-55
2024/01/07 03:03:19;;;;;;;;;;;17.20;65.80;;;;;;7318881;19;9489;-55
2024/01/07 03:05:48;;;;;;;;;;;17.10;65.80;;;;;;7319663;19;9478;-55
2024/01/07 03:08:17;;;;;;;;;;;17.10;65.80;;;;;;7318845;19;9512;-55
2024/01/07 03:10:46;;;;;;;;;;;17.10;65.80;;;;;;7318569;19;9412;-55
2024/01/07 03:13:15;;;;;;;;;;;17.10;65.80;;;;;;7317759;19;9669;-55
2024/01/07 03:15:44;;;;;;;;;;;17.20;65.80;;;;;;7318019;19;9282;-55
2024/01/07 03:18:15;;;;;;;;;;;17.10;65.70;;;;;;7318611;19;9477;-55
2024/01/07 03:20:44;;;;;;;;;;;17.20;65.70;;;;;;7319138;19;9585;-55
2024/01/07 03:23:13;;;;;;;;;;;17.20;65.70;;;;;;7317988;19;10670;-55
2024/01/07 03:25:42;;;;;;;;;;;17.20;65.70;;;;;;7318568;19;9657;-55
2024/01/07 03:28:11;;;;;;;;;;;17.20;65.70;;;;;;7319454;19;9466;-55
2024/01/07 03:30:40;;;;;;;;;;;17.20;65.60;;;;;;7317461;19;9476;-55
2024/01/07 03:33:09;;;;;;;;;;;17.20;65.70;;;;;;7314290;19;9395;-55
2024/01/07 03:35:40;;;;;;;;;;;17.20;65.80;;;;;;7319549;19;9160;-54
2024/01/07 03:38:09;;;;;;;;;;;17.30;65.80;;;;;;7317536;19;9481;-55
2024/01/07 03:40:38;;;;;;;;;;;17.40;65.70;;;;;;7318320;19;9540;-55
2024/01/07 03:43:07;;;;;;;;;;;17.40;65.70;;;;;;7318193;19;9578;-55
2024/01/07 03:45:36;;;;;;;;;;;17.50;65.60;;;;;;7317018;19;9577;-56
2024/01/07 03:48:25;;;;;;;;;;;17.50;66.10;;;;;;7316761;19;9503;-55
2024/01/07 03:50:57;;;;;;;;;;;17.60;65.50;;;;;;7315524;19;10546;-55
2024/01/07 03:53:26;;;;;;;;;;;17.70;65.50;;;;;;7323683;19;10687;-55
2024/01/07 03:55:55;;;;;;;;;;;17.70;65.40;;;;;;7323252;19;9465;-55
2024/01/07 03:58:24;;;;;;;;;;;17.70;65.30;;;;;;7324611;19;9348;-55
2024/01/07 04:00:53;;;;;;;;;;;17.80;65.30;;;;;;7322978;19;9229;-55
2024/01/07 04:03:22;;;;;;;;;;;17.90;65.20;;;;;;7322070;19;9146;-54
2024/01/07 04:05:51;;;;;;;;;;;17.90;65.20;;;;;;7323095;19;9855;-55
2024/01/07 04:08:23;;;;;;;;;;;17.90;65.10;;;;;;7322442;19;9590;-55
2024/01/07 04:10:53;;;;;;;;;;;17.90;65.00;;;;;;7323695;19;9252;-55
2024/01/07 04:13:21;;;;;;;;;;;18.00;65.00;;;;;;7322754;19;9306;-55
2024/01/07 04:15:50;;;;;;;;;;;17.90;64.90;;;;;;7324678;19;9572;-55
2024/01/07 04:18:19;;;;;;;;;;;17.90;64.90;;;;;;7322821;19;10672;-55
2024/01/07 04:20:48;;;;;;;;;;;17.90;64.90;;;;;;7324069;19;10692;-55
2024/01/07 04:23:17;;;;;;;;;;;17.90;64.90;;;;;;7322342;19;9172;-55
2024/01/07 04:25:49;;;;;;;;;;;17.90;64.80;;;;;;7323715;19;11067;-54
2024/01/07 04:28:18;;;;;;;;;;;17.90;64.90;;;;;;7321528;19;9464;-55
2024/01/07 04:30:48;;;;;;;;;;;17.90;64.90;;;;;;7323387;19;9537;-55
2024/01/07 04:33:17;;;;;;;;;;;17.80;65.30;;;;;;7323436;19;9254;-54
2024/01/07 04:35:46;;;;;;;;;;;17.70;64.70;;;;;;7322557;19;9341;-55
2024/01/07 04:38:15;;;;;;;;;;;17.70;64.70;;;;;;7322310;19;9465;-55
2024/01/07 04:40:44;;;;;;;;;;;17.70;64.70;;;;;;7321031;19;10696;-55
2024/01/07 04:43:15;;;;;;;;;;;17.60;64.70;;;;;;7323315;19;9250;-55
2024/01/07 04:45:44;;;;;;;;;;;17.60;64.80;;;;;;7322678;19;9244;-54
2024/01/07 04:48:13;;;;;;;;;;;17.50;64.80;;;;;;7323196;19;9214;-55
2024/01/07 04:50:43;;;;;;;;;;;17.50;64.90;;;;;;7322933;19;9531;-56
2024/01/07 04:53:12;;;;;;;;;;;17.50;65.60;;;;;;7323360;19;9528;-55
2024/01/07 04:56:01;;;;;;;;;;;17.40;65.10;;;;;;7321481;19;9284;-55
2024/01/07 04:58:33;;;;;;;;;;;17.30;65.20;;;;;;7321819;19;9706;-55
2024/01/07 05:01:02;;;;;;;;;;;17.30;65.10;;;;;;7321813;19;9118;-55
2024/01/07 05:03:32;;;;;;;;;;;17.20;65.40;;;;;;7320214;19;9336;-55
2024/01/07 05:06:01;;;;;;;;;;;17.20;65.40;;;;;;7322151;19;9718;-55
2024/01/07 05:08:31;;;;;;;;;;;17.10;65.50;;;;;;7322284;19;9444;-55
2024/01/07 05:11:20;;;;;;;;;;;17.10;65.40;;;;;;7321253;19;10415;-55
2024/01/07 05:13:51;;;;;;;;;;;17.10;65.40;;;;;;7321103;19;9537;-55
2024/01/07 05:16:23;;;;;;;;;;;17.10;65.40;;;;;;7321685;19;9581;-55
2024/01/07 05:18:52;;;;;;;;;;;17.10;65.40;;;;;;7322058;19;9113;-55
2024/01/07 05:21:22;;;;;;;;;;;17.10;65.40;;;;;;7322274;19;9477;-55
2024/01/07 05:23:51;;;;;;;;;;;17.20;65.40;;;;;;7322951;19;9470;-55
2024/01/07 05:26:20;;;;;;;;;;;17.10;65.30;;;;;;7321837;19;9210;-55
2024/01/07 05:28:51;;;;;;;;;;;17.20;65.60;;;;;;7323120;19;10485;-55
2024/01/07 05:31:21;;;;;;;;;;;17.20;65.20;;;;;;7320909;19;9472;-55
2024/01/07 05:33:50;;;;;;;;;;;17.20;65.20;;;;;;7322436;19;9597;-56
2024/01/07 05:36:19;;;;;;;;;;;17.20;65.30;;;;;;7321370;19;9176;-53
2024/01/07 05:38:48;;;;;;;;;;;17.20;65.40;;;;;;7322002;19;9618;-55
2024/01/07 05:41:17;;;;;;;;;;;17.30;65.50;;;;;;7322050;19;9324;-55
2024/01/07 05:43:46;;;;;;;;;;;17.30;65.30;;;;;;7321400;19;9478;-55
2024/01/07 05:46:17;;;;;;;;;;;17.40;65.30;;;;;;7322224;19;9248;-55
2024/01/07 05:48:47;;;;;;;;;;;17.40;65.10;;;;;;7321482;19;9546;-55
2024/01/07 05:51:17;;;;;;;;;;;17.50;65.10;;;;;;7321797;19;9313;-55
2024/01/07 05:53:47;;;;;;;;;;;17.60;65.20;;;;;;7320891;19;9239;-55
2024/01/07 05:56:16;;;;;;;;;;;17.60;65.10;;;;;;7321934;19;9265;-55
2024/01/07 05:58:46;;;;;;;;;;;17.60;65.00;;;;;;7320226;19;9452;-55
2024/01/07 06:01:22;;;;;;;;;;;17.70;65.00;;;;;;7320859;19;9678;-55
2024/01/07 06:03:51;;;;;;;;;;;17.70;65.00;;;;;;7321077;19;9731;-55
2024/01/07 06:06:20;;;;;;;;;;;17.80;64.90;;;;;;7321068;19;9490;-55
2024/01/07 06:08:49;;;;;;;;;;;17.90;64.80;;;;;;7320431;19;9224;-55
2024/01/07 06:11:38;;;;;;;;;;;17.90;64.80;;;;;;7318522;19;9474;-55
2024/01/07 06:14:07;;;;;;;;;;;17.90;64.80;;;;;;7320117;19;9466;-55
2024/01/07 06:16:38;;;;;;;;;;;17.90;64.70;;;;;;7320538;19;9121;-55
2024/01/07 06:19:07;;;;;;;;;;;18.00;64.70;;;;;;7321241;19;9674;-55
2024/01/07 06:21:36;;;;;;;;;;;18.00;64.60;;;;;;7320572;19;9239;-55
2024/01/07 06:24:05;;;;;;;;;;;18.00;64.60;;;;;;7321331;19;9719;-55
2024/01/07 06:26:34;;;;;;;;;;;18.00;64.60;;;;;;7319176;19;9469;-56
2024/01/07 06:29:03;;;;;;;;;;;18.00;64.40;;;;;;7320472;19;10414;-55
2024/01/07 06:31:32;;;;;;;;;;;17.90;64.90;;;;;;7319500;19;9465;-55
2024/01/07 06:34:04;;;;;;;;;;;17.90;64.40;;;;;;7319309;19;9222;-55
2024/01/07 06:36:33;;;;;;;;;;;17.90;64.30;;;;;;7321110;19;9665;-55
2024/01/07 06:39:05;;;;;;;;;;;17.90;64.30;;;;;;7320306;19;9398;-54
2024/01/07 06:41:34;;;;;;;;;;;17.80;64.20;;;;;;7321100;19;9335;-55
2024/01/07 06:44:03;;;;;;;;;;;17.80;64.20;;;;;;7319942;19;9508;-55
2024/01/07 06:46:34;;;;;;;;;;;17.70;64.10;;;;;;7320037;19;9460;-55
2024/01/07 06:49:05;;;;;;;;;;;17.70;64.20;;;;;;7320464;19;9407;-55
2024/01/07 06:51:34;;;;;;;;;;;17.60;64.20;;;;;;7320485;19;9209;-55
2024/01/07 06:54:03;;;;;;;;;;;17.60;64.20;;;;;;7319199;19;10672;-55
2024/01/07 06:56:32;;;;;;;;;;;17.50;64.30;;;;;;7319666;19;9170;-55
2024/01/07 06:59:02;;;;;;;;;;;17.50;64.40;;;;;;7319734;19;9604;-55
2024/01/07 07:01:31;;;;;;;;;;;17.40;64.50;;;;;;7320040;19;9223;-55
2024/01/07 07:04:00;;;;;;;;;;;17.40;64.50;;;;;;7317672;19;9551;-55
2024/01/07 07:06:32;;;;;;;;;;;17.30;64.60;;;;;;7320092;19;9543;-55
2024/01/07 07:09:01;;;;;;;;;;;17.20;64.60;;;;;;7320111;19;9143;-56
2024/01/07 07:11:29;;;;;;;;;;;17.20;64.80;;;;;;7318984;19;9322;-55
2024/01/07 07:13:58;;;;;;;;;;;17.20;64.90;;;;;;7318194;19;9593;-55
2024/01/07 07:16:27;;;;;;;;;;;17.10;64.90;;;;;;7319187;19;9269;-55
2024/01/07 07:18:56;;;;;;;;;;;17.10;65.50;;;;;;7318822;19;9478;-55
2024/01/07 07:21:27;;;;;;;;;;;17.10;64.90;;;;;;7318151;19;9483;-54
2024/01/07 07:23:58;;;;;;;;;;;17.10;64.90;;;;;;7319587;19;9312;-55
2024/01/07 07:26:27;;;;;;;;;;;17.10;64.90;;;;;;7316674;19;9554;-55
2024/01/07 07:28:56;;;;;;;;;;;17.10;64.80;;;;;;7320295;19;9206;-55
2024/01/07 07:31:25;;;;;;;;;;;17.10;64.80;;;;;;7317167;19;9462;-55
2024/01/07 07:34:14;;;;;;;;;;;17.10;64.70;;;;;;7316181;19;9256;-55
2024/01/07 07:36:44;;;;;;;;;;;17.10;65.30;;;;;;7318902;19;10949;-55
2024/01/07 07:39:16;;;;;;;;;;;17.10;64.60;;;;;;7317980;19;9470;-54
2024/01/07 07:42:05;;;;;;;;;;;17.10;64.70;;;;;;7316862;19;9282;-55
2024/01/07 07:44:34;;;;;;;;;;;17.20;64.90;;;;;;7318149;19;9509;-54
2024/01/07 07:47:03;;;;;;;;;;;17.20;64.90;;;;;;7315510;19;9248;-55
2024/01/07 07:49:32;;;;;;;;;;;17.20;64.80;;;;;;7317382;19;9357;-55
2024/01/07 07:52:01;;;;;;;;;;;17.30;64.70;;;;;;7316424;19;9151;-55
2024/01/07 07:54:33;;;;;;;;;;;17.40;64.60;;;;;;7316836;19;9670;-55
2024/01/07 07:57:02;;;;;;;;;;;17.40;64.60;;;;;;7315129;19;9477;-56
2024/01/07 07:59:31;;;;;;;;;;;17.50;64.70;;;;;;7316755;19;9526;-55
2024/01/07 08:02:01;;;;;;;;;;;17.60;64.60;;;;;;7316158;19;10044;-55
2024/01/07 08:04:30;;;;;;;;;;;17.60;64.60;;;;;;7314052;19;9239;-55
2024/01/07 08:07:00;;;;;;;;;;;17.60;64.50;;;;;;7316893;19;9600;-55
2024/01/07 08:09:29;;;;;;;;;;;17.70;64.50;;;;;;7317902;19;9528;-55
2024/01/07 08:12:01;;;;;;;;;;;17.70;64.40;;;;;;7315874;19;9251;-56
2024/01/07 08:14:30;;;;;;;;;;;17.80;64.30;;;;;;7316657;19;9235;-56
2024/01/07 08:16:58;;;;;;;;;;;17.80;64.30;;;;;;7316106;19;9469;-55
2024/01/07 08:19:28;;;;;;;;;;;17.90;64.30;;;;;;7317144;19;9543;-55
2024/01/07 08:21:57;;;;;;;;;;;17.90;64.30;;;;;;7316414;19;10701;-55
2024/01/07 08:24:25;;;;;;;;;;;17.90;64.20;;;;;;7316553;19;9465;-56
2024/01/07 08:26:54;;;;;;;;;;;17.90;64.20;;;;;;7317098;19;9469;-56
2024/01/07 08:29:26;;;;;;;;;;;17.90;64.20;;;;;;7316205;19;9382;-56
2024/01/07 08:31:55;;;;;;;;;;;17.90;64.20;;;;;;7316460;19;9398;-55
2024/01/07 08:34:24;;;;;;;;;;;17.90;64.20;;;;;;7315566;19;9444;-56
2024/01/07 08:36:53;;;;;;;;;;;17.90;64.00;;;;;;7317469;19;10331;-55
2024/01/07 08:39:22;;;;;;;;;;;17.90;64.10;;;;;;7318221;19;9234;-56
2024/01/07 08:41:52;;;;;;;;;;;17.90;64.10;;;;;;7323909;19;9233;-56
2024/01/07 08:44:21;;;;;;;;;;;17.90;64.00;;;;;;7322734;19;9449;-55
2024/01/07 08:46:52;;;;;;;;;;;17.80;64.00;;;;;;7322984;19;9245;-55
2024/01/07 08:49:21;;;;;;;;;;;17.80;63.90;;;;;;7322257;19;9138;-56
2024/01/07 08:51:50;;;;;;;;;;;17.70;63.80;;;;;;7323008;19;9509;-54
2024/01/07 08:54:19;;;;;;;;;;;17.70;63.80;;;;;;7321881;19;9293;-55
2024/01/07 08:56:48;;;;;;;;;;;17.70;63.80;;;;;;7321354;19;9349;-55
2024/01/07 08:59:17;;;;;;;;;;;17.60;64.00;;;;;;7322071;19;9240;-55
2024/01/07 09:01:46;;;;;;;;;;;17.60;64.00;;;;;;7320626;19;9606;-55
2024/01/07 09:04:18;;;;;;;;;;;17.50;64.00;;;;;;7322232;19;9472;-55
2024/01/07 09:06:47;;;;;;;;;;;17.50;64.10;;;;;;7320222;19;11481;-55
2024/01/07 09:09:16;;;;;;;;;;;17.40;64.10;;;;;;7320777;19;9454;-55
2024/01/07 09:11:45;;;;;;;;;;;17.40;64.30;;;;;;7320696;19;9469;-56
2024/01/07 09:14:14;;;;;;;;;;;17.30;64.30;;;;;;7321730;19;9512;-55
2024/01/07 09:17:03;;;;;;;;;;;17.30;64.50;;;;;;7319176;19;9463;-55
2024/01/07 09:19:34;;;;;;;;;;;17.20;64.40;;;;;;7321075;19;9474;-55
2024/01/07 09:22:03;;;;;;;;;;;17.20;64.50;;;;;;7322372;19;10406;-55
2024/01/07 09:24:33;;;;;;;;;;;17.10;64.50;;;;;;7321942;19;9197;-55
2024/01/07 09:27:01;;;;;;;;;;;17.10;64.50;;;;;;7320833;19;10153;-55
2024/01/07 09:29:32;;;;;;;;;;;17.10;64.60;;;;;;7321314;19;10293;-55
2024/01/07 09:32:00;;;;;;;;;;;17.20;64.60;;;;;;7320465;19;9499;-55
2024/01/07 09:34:29;;;;;;;;;;;17.20;64.60;;;;;;7319796;19;9432;-56
2024/01/07 09:37:01;;;;;;;;;;;17.20;64.80;;;;;;7321575;19;9418;-55
2024/01/07 09:39:30;;;;;;;;;;;17.20;64.60;;;;;;7320124;19;9228;-55
2024/01/07 09:42:00;;;;;;;;;;;17.30;64.80;;;;;;7322223;19;9417;-55
2024/01/07 09:44:29;;;;;;;;;;;17.30;64.80;;;;;;7319094;19;9457;-55
2024/01/07 09:47:01;;;;;;;;;;;17.40;64.80;;;;;;7320763;19;9269;-55
2024/01/07 09:49:30;;;;;;;;;;;17.40;64.70;;;;;;7319238;19;9265;-55
2024/01/07 09:52:04;;;;;;;;;;;17.40;64.50;;;;;;7319816;19;9212;-56
2024/01/07 09:54:34;;;;;;;;;;;17.40;64.50;;;;;;7320002;19;9421;-56
2024/01/07 09:57:06;;;;;;;;;;;17.40;64.50;;;;;;7320942;19;9531;-55
2024/01/07 09:59:36;;;;;;;;;;;17.40;64.50;;;;;;7320761;19;9429;-56
2024/01/07 10:02:06;;;;;;;;;;;17.50;64.50;;;;;;7319600;19;9668;-55
2024/01/07 10:04:35;;;;;;;;;;;17.60;64.50;;;;;;7319106;19;9493;-56
2024/01/07 10:07:07;;;;;;;;;;;17.60;64.50;;;;;;7319685;19;9225;-55
2024/01/07 10:09:37;;;;;;;;;;;17.60;64.50;;;;;;7320050;19;9200;-55
2024/01/07 10:12:06;;;;;;;;;;;17.70;64.50;;;;;;7320105;19;10787;-56
2024/01/07 10:14:35;;;;;;;;;;;17.70;64.40;;;;;;7319022;19;9246;-55
2024/01/07 10:17:04;;;;;;;;;;;17.80;64.40;;;;;;7321043;19;9128;-55
2024/01/07 10:19:33;;;;;;;;;;;17.80;64.30;;;;;;7318678;19;10294;-56
2024/01/07 10:22:03;;;;;;;;;;;17.90;64.30;;;;;;7319612;19;9206;-55
2024/01/07 10:24:40;;;;;;;;;;;17.90;64.30;;;;;;7318883;19;10837;-55
2024/01/07 10:27:10;;;;;;;;;;;18.00;64.30;;;;;;7319950;19;10410;-55
2024/01/07 10:29:39;;;;;;;;;;;18.00;64.30;;;;;;7319076;19;9329;-55
2024/01/07 10:32:09;;;;;;;;;;;18.00;64.20;;;;;;7320725;19;9417;-55
2024/01/07 10:34:39;;;;;;;;;;;18.00;64.20;;;;;;7319210;19;9788;-55
2024/01/07 10:37:09;;;;;;;;;;;18.00;64.20;;;;;;7319313;19;9548;-55
2024/01/07 10:39:41;;;;;;;;;;;18.00;64.10;;;;;;7319068;19;10498;-55
2024/01/07 10:42:11;;;;;;;;;;;18.00;64.10;;;;;;7320115;19;9638;-56
2024/01/07 10:44:41;;;;;;;;;;;18.00;64.20;;;;;;7316466;19;9340;-55
2024/01/07 10:47:12;;;;;;;;;;;18.00;64.10;;;;;;7319144;19;9183;-55
2024/01/07 10:49:46;;;;;;;;;;;17.90;64.10;;;;;;7317458;19;9323;-55
2024/01/07 10:52:15;;;;;;;;;;;17.90;64.00;;;;;;7318683;19;9638;-55
2024/01/07 10:54:49;;;;;;;;;;;17.90;64.00;;;;;;7319216;19;9467;-55
2024/01/07 10:57:27;;;;;;;;;;;17.90;64.10;;;;;;7318416;19;9466;-55
2024/01/07 11:00:20;;;;;;;;;;;17.80;64.00;;;;;;7316950;19;9462;-55
2024/01/07 11:03:00;;;;;;;;;;;17.80;64.20;;;;;;7316805;19;9194;-55
2024/01/07 11:05:47;;;;;;;;;;;17.70;64.40;;;;;;7318687;19;9754;-55
2024/01/07 11:08:26;;;;;;;;;;;17.70;64.20;;;;;;7317401;19;9410;-56
2024/01/07 11:11:07;;;;;;;;;;;17.70;64.20;;;;;;7318062;19;9543;-55
2024/01/07 11:13:38;;;;;;;;;;;17.70;64.30;;;;;;7318553;19;9513;-55
2024/01/07 11:16:09;;;;;;;;;;;17.70;64.30;;;;;;7318754;19;9253;-55
2024/01/07 11:18:41;;;;;;;;;;;17.60;64.40;;;;;;7317572;19;9680;-55
2024/01/07 11:21:10;;;;;;;;;;;17.60;64.50;;;;;;7318430;19;9249;-55
2024/01/07 11:23:46;;;;;;;;;;;17.60;64.60;;;;;;7319182;19;9511;-55
2024/01/07 11:26:17;;;;;;;;;;;17.50;64.50;;;;;;7317141;19;9474;-55
2024/01/07 11:28:52;;;;;;;;;;;17.50;64.60;;;;;;7317946;19;9473;-55
2024/01/07 11:31:24;;;;;;;;;;;17.50;64.70;;;;;;7316961;19;9325;-55
2024/01/07 11:33:54;;;;;;;;;;;17.50;64.70;;;;;;7319053;19;9406;-55
2024/01/07 11:36:23;;;;;;;;;;;17.40;64.80;;;;;;7317257;19;9457;-55
2024/01/07 11:38:53;;;;;;;;;;;17.40;64.80;;;;;;7318045;19;9392;-55
2024/01/07 11:41:28;;;;;;;;;;;17.40;64.90;;;;;;7317793;19;9431;-55
2024/01/07 11:43:59;;;;;;;;;;;17.40;65.00;;;;;;7317469;19;9418;-55
2024/01/07 11:46:50;;;;;;;;;;;17.30;65.00;;;;;;7316635;19;9723;-55
2024/01/07 11:49:19;;;;;;;;;;;17.40;65.00;;;;;;7316991;19;9589;-55
2024/01/07 11:51:48;;;;;;;;;;;17.30;65.10;;;;;;7317262;19;11641;-56
2024/01/07 11:54:17;;;;;;;;;;;17.40;65.10;;;;;;7317616;19;9034;-55
2024/01/07 11:56:49;;;;;;;;;;;17.40;65.80;;;;;;7317402;19;9496;-56
2024/01/07 11:59:18;;;;;;;;;;;17.40;65.30;;;;;;7316964;19;9535;-55
2024/01/07 12:01:47;;;;;;;;;;;17.50;65.30;;;;;;7315047;19;9502;-55
2024/01/07 12:04:16;;;;;;;;;;;17.50;65.20;;;;;;7317769;19;9571;-55
2024/01/07 12:06:46;;;;;;;;;;;17.50;65.20;;;;;;7316399;19;9479;-55
2024/01/07 12:09:15;;;;;;;;;;;17.60;65.10;;;;;;7317053;19;9459;-55
2024/01/07 12:11:47;;;;;;;;;;;17.60;65.10;;;;;;7313672;19;9498;-55
2024/01/07 12:14:17;;;;;;;;;;;17.70;65.10;;;;;;7321740;19;9620;-55
2024/01/07 12:16:46;;;;;;;;;;;17.70;65.10;;;;;;7319060;19;9368;-55
2024/01/07 12:19:15;;;;;;;;;;;17.80;65.10;;;;;;7324096;19;9707;-56
2024/01/07 12:21:44;;;;;;;;;;;17.70;65.00;;;;;;7320678;19;9573;-55
2024/01/07 12:24:13;;;;;;;;;;;17.80;65.10;;;;;;7323411;19;9423;-55
2024/01/07 12:26:43;;;;;;;;;;;17.90;65.10;;;;;;7321791;19;10658;-56
2024/01/07 12:29:17;;;;;;;;;;;17.90;64.90;;;;;;7322358;19;9602;-55
2024/01/07 12:31:46;;;;;;;;;;;18.00;64.90;;;;;;7323334;19;9521;-55
2024/01/07 12:34:15;;;;;;;;;;;18.00;64.80;;;;;;7322600;19;9207;-55
2024/01/07 12:36:46;;;;;;;;;;;18.00;64.80;;;;;;7321173;19;9194;-55
2024/01/07 12:39:15;;;;;;;;;;;18.00;64.70;;;;;;7322647;19;9441;-55
2024/01/07 12:41:44;;;;;;;;;;;18.10;64.70;;;;;;7323811;19;9461;-55
2024/01/07 12:44:16;;;;;;;;;;;18.10;64.80;;;;;;7321425;19;9503;-56
2024/01/07 12:46:45;;;;;;;;;;;18.00;64.60;;;;;;7323321;19;9335;-55
2024/01/07 12:49:14;;;;;;;;;;;18.10;64.60;;;;;;7322437;19;9152;-55
2024/01/07 12:51:43;;;;;;;;;;;18.10;64.60;;;;;;7322667;19;9618;-55
2024/01/07 12:54:12;;;;;;;;;;;18.00;64.60;;;;;;7320481;19;9712;-56
2024/01/07 12:56:40;;;;;;;;;;;18.10;64.60;;;;;;7321151;19;9357;-55
2024/01/07 12:59:12;;;;;;;;;;;18.00;64.60;;;;;;7322346;19;9491;-58
2024/01/07 13:01:43;;;;;;;;;;;18.00;64.60;;;;;;7320447;19;9288;-55
2024/01/07 13:04:13;;;;;;;;;;;18.00;64.50;;;;;;7322256;19;9330;-56
2024/01/07 13:06:42;;;;;;;;;;;18.00;64.50;;;;;;7321767;19;9398;-55
2024/01/07 13:09:11;;;;;;;;;;;18.00;64.50;;;;;;7322101;19;9213;-55
2024/01/07 13:11:41;;;;;;;;;;;18.00;64.60;;;;;;7320423;19;9477;-56
2024/01/07 13:14:10;;;;;;;;;;;18.00;64.60;;;;;;7321945;19;9521;-56
2024/01/07 13:16:39;;;;;;;;;;;17.90;64.70;;;;;;7320770;19;9543;-55
2024/01/07 13:19:11;;;;;;;;;;;17.90;64.80;;;;;;7322460;19;9268;-55
2024/01/07 13:21:41;;;;;;;;;;;17.80;64.80;;;;;;7321516;19;9634;-56
2024/01/07 13:24:10;;;;;;;;;;;17.80;64.80;;;;;;7321360;19;9533;-55
2024/01/07 13:26:40;;;;;;;;;;;17.80;64.90;;;;;;7320184;19;9018;-55
2024/01/07 13:29:10;;;;;;;;;;;17.70;64.90;;;;;;7321333;19;9194;-56
2024/01/07 13:31:38;;;;;;;;;;;17.70;65.00;;;;;;7321954;19;9426;-55
2024/01/07 13:34:11;;;;;;;;;;;17.70;65.00;;;;;;7320964;19;9489;-55
2024/01/07 13:36:59;;;;;;;;;;;17.60;65.00;;;;;;7320158;19;9182;-55
2024/01/07 13:39:29;;;;;;;;;;;17.60;65.10;;;;;;7320025;19;10913;-55
2024/01/07 13:41:58;;;;;;;;;;;17.50;65.10;;;;;;7322180;19;9218;-55
2024/01/07 13:44:27;;;;;;;;;;;17.60;65.30;;;;;;7320435;19;9301;-55
2024/01/07 13:46:56;;;;;;;;;;;17.50;65.30;;;;;;7322353;19;10451;-55
2024/01/07 13:49:27;;;;;;;;;;;17.50;65.40;;;;;;7321202;19;9640;-55
2024/01/07 13:51:57;;;;;;;;;;;17.50;65.40;;;;;;7321015;19;9433;-55
2024/01/07 13:54:25;;;;;;;;;;;17.40;65.40;;;;;;7321001;19;9437;-55
2024/01/07 13:56:54;;;;;;;;;;;17.40;65.40;;;;;;7320771;19;9672;-55
2024/01/07 13:59:22;;;;;;;;;;;17.30;65.50;;;;;;7321372;19;9520;-55
2024/01/07 14:01:52;;;;;;;;;;;17.30;65.60;;;;;;7318978;19;9634;-55
2024/01/07 14:04:21;;;;;;;;;;;17.30;65.50;;;;;;7321006;19;9347;-55
2024/01/07 14:07:13;;;;;;;;;;;17.30;65.70;;;;;;7318160;19;9501;-55
2024/01/07 14:09:42;;;;;;;;;;;17.20;65.60;;;;;;7320173;19;9226;-55
2024/01/07 14:12:11;;;;;;;;;;;17.30;65.70;;;;;;7320113;19;9230;-56
2024/01/07 14:14:40;;;;;;;;;;;17.30;65.60;;;;;;7320265;19;9617;-55
2024/01/07 14:17:09;;;;;;;;;;;17.30;65.60;;;;;;7320199;19;9422;-55
2024/01/07 14:19:38;;;;;;;;;;;17.30;65.60;;;;;;7319173;19;9498;-56
2024/01/07 14:22:06;;;;;;;;;;;17.30;65.50;;;;;;7320636;19;9473;-55
2024/01/07 14:24:38;;;;;;;;;;;17.40;65.50;;;;;;7319014;19;9191;-55
2024/01/07 14:27:07;;;;;;;;;;;17.40;65.60;;;;;;7320420;19;9269;-55
2024/01/07 14:29:56;;;;;;;;;;;17.50;65.40;;;;;;7318749;19;9424;-55
2024/01/07 14:32:25;;;;;;;;;;;17.50;65.30;;;;;;7318942;19;9431;-55
2024/01/07 14:34:54;;;;;;;;;;;17.60;65.30;;;;;;7319284;19;10377;-55
2024/01/07 14:37:23;;;;;;;;;;;17.60;65.20;;;;;;7316575;19;9245;-55
2024/01/07 14:39:55;;;;;;;;;;;17.70;65.30;;;;;;7319932;19;9204;-55
2024/01/07 14:42:24;;;;;;;;;;;17.70;65.20;;;;;;7318875;19;9516;-55
2024/01/07 14:44:53;;;;;;;;;;;17.70;65.70;;;;;;7319305;19;9223;-55
2024/01/07 14:47:41;;;;;;;;;;;17.80;65.20;;;;;;7316695;19;9503;-56